Time;durP1;ratioP1;P1;durP2;ratioP2;P2;SDS_P1;SDS_P2;PMS_P1;PMS_P2;Temp;Humidity;BMP_temperature;BMP_pressure;BME280_temperature;BME280_humidity;BME280_pressure;Samples;Min_cycle;Max_cycle;Signal;HPM_P1;HPM_P2
2022/10/21 00:00:27;;;;;;;27.27;19.60;;;;;;;13.18;100.00;98917.50;4913079;29;20203;-81
2022/10/21 00:02:55;;;;;;;25.57;20.47;;;;;;;13.16;100.00;98923.94;4930046;29;20201;-81
2022/10/21 00:05:26;;;;;;;25.73;19.93;;;;;;;13.01;100.00;98923.31;4932830;29;20681;-81
2022/10/21 00:07:54;;;;;;;27.03;20.50;;;;;;;12.97;100.00;98921.00;4882040;29;20244;-81
2022/10/21 00:10:24;;;;;;;26.40;20.43;;;;;;;13.11;100.00;98918.13;4935608;28;20698;-81
2022/10/21 00:12:56;;;;;;;27.23;21.73;;;;;;;13.07;100.00;98922.00;4965241;28;20332;-81
2022/10/21 00:15:25;;;;;;;27.20;20.93;;;;;;;13.06;100.00;98928.28;4965122;28;20227;-81
2022/10/21 00:17:55;;;;;;;27.47;21.57;;;;;;;13.14;100.00;98931.19;4978049;28;20202;-81
2022/10/21 00:20:24;;;;;;;26.80;21.20;;;;;;;13.08;100.00;98921.88;5026102;28;20229;-81
2022/10/21 00:22:52;;;;;;;28.93;21.30;;;;;;;13.12;100.00;98919.81;5062552;28;20257;-80
2022/10/21 00:25:23;;;;;;;28.73;21.87;;;;;;;13.06;100.00;98914.97;5088281;28;20651;-81
2022/10/21 00:27:52;;;;;;;32.80;22.63;;;;;;;13.06;100.00;98902.53;5088668;28;20191;-81
2022/10/21 00:30:25;;;;;;;33.73;22.70;;;;;;;13.06;100.00;98907.00;5086778;28;20192;-81
2022/10/21 00:32:53;;;;;;;31.37;23.50;;;;;;;13.08;100.00;98905.06;5084769;28;20398;-81
2022/10/21 00:35:30;;;;;;;28.77;22.20;;;;;;;13.00;100.00;98887.06;5088710;28;20219;-81
2022/10/21 00:38:00;;;;;;;30.50;23.13;;;;;;;12.97;100.00;98903.25;5085364;28;20265;-81
2022/10/21 00:40:29;;;;;;;28.80;22.60;;;;;;;13.09;100.00;98902.28;5085972;28;20217;-81
2022/10/21 00:42:57;;;;;;;30.27;22.83;;;;;;;13.12;100.00;98899.41;5084887;28;20317;-81
2022/10/21 00:45:30;;;;;;;31.77;23.00;;;;;;;13.09;100.00;98886.31;5082732;28;20663;-80
2022/10/21 00:48:04;;;;;;;27.23;21.27;;;;;;;12.83;100.00;98868.91;5089534;28;20204;-80
2022/10/21 00:50:39;;;;;;;24.77;20.57;;;;;;;13.15;100.00;98848.63;5083946;28;20303;-80
2022/10/21 00:53:14;;;;;;;26.80;20.73;;;;;;;13.17;100.00;98854.66;5091177;28;20213;-80
2022/10/21 00:55:49;;;;;;;30.10;21.47;;;;;;;13.19;100.00;98846.59;5086543;28;20630;-80
2022/10/21 00:58:22;;;;;;;30.63;22.33;;;;;;;13.30;100.00;98882.97;5088204;28;20252;-80
2022/10/21 01:00:56;;;;;;;29.73;22.57;;;;;;;13.20;100.00;98911.25;5083263;28;20576;-80
2022/10/21 01:03:26;;;;;;;32.17;23.03;;;;;;;13.11;100.00;98904.81;5090138;28;20203;-80
2022/10/21 01:05:57;;;;;;;29.30;23.07;;;;;;;13.08;100.00;98895.28;5090259;28;20207;-80
2022/10/21 01:08:26;;;;;;;31.63;22.77;;;;;;;13.07;100.00;98882.94;5083801;28;20234;-80
2022/10/21 01:10:55;;;;;;;38.70;23.93;;;;;;;13.05;100.00;98884.03;5040287;28;20203;-80
2022/10/21 01:13:36;;;;;;;35.57;23.87;;;;;;;13.03;100.00;98868.22;5086412;28;20638;-80
2022/10/21 01:16:16;;;;;;;32.57;24.47;;;;;;;13.18;100.00;98852.84;5089540;28;20327;-80
2022/10/21 01:18:52;;;;;;;34.63;24.93;;;;;;;13.21;100.00;98852.63;5091330;28;20195;-80
2022/10/21 01:21:31;;;;;;;36.90;25.97;;;;;;;13.05;100.00;98834.38;5085216;28;20203;-80
2022/10/21 01:24:38;;;;;;;35.07;24.00;;;;;;;13.02;100.00;98831.09;5088393;28;20195;-81
2022/10/21 01:27:14;;;;;;;31.57;23.50;;;;;;;13.10;100.00;98849.94;5093156;28;20200;-80
2022/10/21 01:30:07;;;;;;;35.83;24.30;;;;;;;13.08;100.00;98862.53;5086202;28;20233;-81
2022/10/21 01:33:14;;;;;;;29.83;22.57;;;;;;;13.08;100.00;98866.03;5085993;28;20256;-80
2022/10/21 01:35:49;;;;;;;37.53;25.27;;;;;;;13.11;100.00;98860.44;5087211;28;20223;-80
2022/10/21 01:38:24;;;;;;;31.30;22.77;;;;;;;13.02;100.00;98855.88;5092608;28;20187;-80
2022/10/21 01:41:01;;;;;;;30.87;23.97;;;;;;;13.05;100.00;98860.13;5027901;28;20196;-80
2022/10/21 01:43:38;;;;;;;35.40;23.83;;;;;;;13.16;100.00;98850.31;5023222;28;20255;-80
2022/10/21 01:46:14;;;;;;;30.93;24.00;;;;;;;13.21;100.00;98857.94;5021095;28;20204;-80
2022/10/21 01:48:55;;;;;;;40.80;25.67;;;;;;;13.17;100.00;98852.00;5024365;28;20208;-80
2022/10/21 01:51:27;;;;;;;34.97;25.10;;;;;;;13.25;100.00;98846.09;5023810;28;20205;-80
2022/10/21 01:54:02;;;;;;;34.63;24.87;;;;;;;13.20;100.00;98836.78;5024350;28;20198;-80
2022/10/21 01:56:32;;;;;;;39.33;25.50;;;;;;;13.16;100.00;98839.69;5030492;28;20217;-80
2022/10/21 01:59:05;;;;;;;40.27;25.50;;;;;;;13.26;100.00;98834.50;5055004;28;20188;-82
2022/10/21 02:01:36;;;;;;;40.50;26.60;;;;;;;13.21;100.00;98831.34;5082513;28;20192;-81
2022/10/21 02:04:08;;;;;;;33.47;25.00;;;;;;;13.28;100.00;98829.06;5022504;28;20198;-82
2022/10/21 02:06:40;;;;;;;36.20;25.93;;;;;;;13.24;100.00;98822.31;5021123;28;20197;-82
2022/10/21 02:09:08;;;;;;;38.27;25.70;;;;;;;13.23;100.00;98825.94;4964911;28;20223;-82
2022/10/21 02:11:41;;;;;;;35.90;23.73;;;;;;;13.29;100.00;98815.63;4964633;28;20198;-80
2022/10/21 02:14:15;;;;;;;35.13;23.77;;;;;;;13.40;100.00;98806.78;4966102;28;20231;-80
2022/10/21 02:16:45;;;;;;;35.43;24.53;;;;;;;13.44;100.00;98816.22;4969516;28;20223;-81
2022/10/21 02:19:16;;;;;;;38.27;25.03;;;;;;;13.43;100.00;98803.88;4969211;28;20203;-80
2022/10/21 02:21:49;;;;;;;37.23;24.83;;;;;;;13.49;100.00;98803.38;4975535;28;20200;-80
2022/10/21 02:24:25;;;;;;;40.57;24.13;;;;;;;13.44;100.00;98811.75;4819047;29;20205;-80
2022/10/21 02:26:55;;;;;;;36.93;23.53;;;;;;;13.51;100.00;98806.78;4839126;29;20255;-81
2022/10/21 02:29:32;;;;;;;41.27;25.13;;;;;;;13.62;100.00;98804.06;4924626;29;20731;-80
2022/10/21 02:32:16;;;;;;;42.57;25.33;;;;;;;13.67;100.00;98793.88;4928512;29;20204;-81
2022/10/21 02:35:01;;;;;;;43.60;25.73;;;;;;;13.73;100.00;98788.06;4932855;29;20205;-81
2022/10/21 02:37:45;;;;;;;40.70;24.13;;;;;;;13.77;100.00;98783.31;4895463;29;20274;-80
2022/10/21 02:40:19;;;;;;;38.00;24.37;;;;;;;13.74;100.00;98800.38;4901225;29;20234;-81
2022/10/21 02:42:52;;;;;;;39.53;24.07;;;;;;;13.73;100.00;98804.03;4968478;28;20194;-81
2022/10/21 02:45:24;;;;;;;43.50;25.27;;;;;;;13.67;100.00;98817.81;5011695;28;20202;-81
2022/10/21 02:47:54;;;;;;;38.70;24.60;;;;;;;13.77;100.00;98806.41;5005894;28;20225;-80
2022/10/21 02:50:25;;;;;;;40.93;23.47;;;;;;;13.77;100.00;98801.94;4972081;28;20238;-81
2022/10/21 02:52:59;;;;;;;33.97;21.40;;;;;;;13.82;100.00;98801.56;4968235;28;20200;-80
2022/10/21 02:55:29;;;;;;;37.50;21.73;;;;;;;13.87;100.00;98802.03;5005149;28;20204;-80
2022/10/21 02:57:59;;;;;;;36.53;22.67;;;;;;;13.97;100.00;98793.13;5048630;28;20282;-81
2022/10/21 03:00:28;;;;;;;42.97;23.73;;;;;;;13.89;100.00;98786.75;5050252;28;20202;-81
2022/10/21 03:03:00;;;;;;;36.03;21.23;;;;;;;13.95;100.00;98771.13;5051681;28;20232;-80
2022/10/21 03:05:32;;;;;;;38.43;21.83;;;;;;;14.10;100.00;98768.16;4971107;28;20196;-81
2022/10/21 03:08:03;;;;;;;35.67;22.30;;;;;;;14.10;100.00;98760.16;4965355;28;20210;-81
2022/10/21 03:10:39;;;;;;;38.07;21.30;;;;;;;14.04;100.00;98765.03;4949115;29;20204;-80
2022/10/21 03:13:10;;;;;;;34.00;20.10;;;;;;;14.09;100.00;98756.66;4947775;29;20265;-81
2022/10/21 03:15:44;;;;;;;35.83;20.53;;;;;;;14.10;100.00;98771.66;4894671;29;20201;-82
2022/10/21 03:18:17;;;;;;;37.33;21.13;;;;;;;14.09;100.00;98777.09;4910288;29;20252;-81
2022/10/21 03:20:51;;;;;;;34.53;19.37;;;;;;;14.14;100.00;98775.75;4914918;29;20200;-81
2022/10/21 03:23:23;;;;;;;33.77;19.23;;;;;;;14.13;100.00;98776.72;4915274;29;20210;-82
2022/10/21 03:25:54;;;;;;;30.27;19.27;;;;;;;14.11;100.00;98776.00;4841981;29;20210;-82
2022/10/21 03:28:25;;;;;;;31.53;18.83;;;;;;;14.17;100.00;98780.81;4780668;30;20199;-81
2022/10/21 03:30:57;;;;;;;27.07;17.40;;;;;;;14.22;100.00;98777.75;4726401;30;20259;-82
2022/10/21 03:33:27;;;;;;;26.83;16.87;;;;;;;14.20;100.00;98780.56;4755082;29;20210;-82
2022/10/21 03:35:59;;;;;;;25.03;16.23;;;;;;;14.16;100.00;98775.59;4782983;29;20207;-81
2022/10/21 03:38:32;;;;;;;26.70;17.30;;;;;;;14.11;100.00;98773.34;4778167;29;20199;-82
2022/10/21 03:41:05;;;;;;;29.67;16.57;;;;;;;14.07;100.00;98763.91;4753424;30;20264;-82
2022/10/21 03:46:23;;;;;;;28.20;19.00;;;;;;;14.08;100.00;98778.06;4842090;29;20195;-82
2022/10/21 03:49:17;;;;;;;32.60;18.23;;;;;;;14.03;100.00;98776.66;4875299;29;20282;-81
2022/10/21 03:51:58;;;;;;;31.50;18.90;;;;;;;14.02;100.00;98771.47;4910801;29;20653;-82
2022/10/21 03:54:35;;;;;;;27.37;18.80;;;;;;;13.95;100.00;98778.28;4953330;28;20235;-82
2022/10/21 03:57:12;;;;;;;33.63;19.70;;;;;;;14.02;100.00;98772.31;4991864;28;20215;-82
2022/10/21 03:59:55;;;;;;;28.63;20.40;;;;;;;14.02;100.00;98768.81;4985674;28;20210;-82
2022/10/21 04:02:32;;;;;;;28.00;19.90;;;;;;;14.07;100.00;98765.72;5008347;28;20273;-82
2022/10/21 04:05:20;;;;;;;29.43;19.90;;;;;;;14.03;100.00;98752.69;4971372;28;20199;-82
2022/10/21 04:08:09;;;;;;;29.73;20.50;;;;;;;14.02;100.00;98766.13;4916195;29;20253;-82
2022/10/21 04:10:55;;;;;;;31.20;20.43;;;;;;;14.11;100.00;98768.03;4917890;29;20212;-82
2022/10/21 04:13:36;;;;;;;31.80;21.63;;;;;;;14.04;100.00;98770.34;4934979;29;20236;-82
2022/10/21 04:16:14;;;;;;;34.13;21.93;;;;;;;13.92;100.00;98757.25;4930370;29;20193;-82
2022/10/21 04:18:47;;;;;;;33.23;21.97;;;;;;;13.92;100.00;98762.56;4930998;29;20228;-82
2022/10/21 04:21:29;;;;;;;31.30;20.90;;;;;;;13.95;100.00;98751.66;4875921;29;20215;-82
2022/10/21 04:23:59;;;;;;;34.27;21.37;;;;;;;13.86;100.00;98758.59;4873086;29;20262;-82
2022/10/21 04:26:35;;;;;;;28.03;20.87;;;;;;;13.92;100.00;98752.75;4875777;29;20206;-82
2022/10/21 04:29:09;;;;;;;29.40;20.03;;;;;;;13.95;100.00;98749.81;4893866;29;20212;-82
2022/10/21 04:31:50;;;;;;;32.93;21.80;;;;;;;13.84;100.00;98749.88;4879806;29;20251;-82
2022/10/21 04:34:22;;;;;;;31.53;21.00;;;;;;;13.89;100.00;98749.50;4836996;29;20230;-82
2022/10/21 04:36:55;;;;;;;30.40;20.87;;;;;;;13.99;100.00;98747.75;4837211;29;20236;-82
2022/10/21 04:39:33;;;;;;;31.67;21.20;;;;;;;13.99;100.00;98742.41;4816811;29;20281;-82
2022/10/21 04:42:20;;;;;;;30.50;21.17;;;;;;;13.98;100.00;98733.56;4819402;29;20200;-82
2022/10/21 04:44:51;;;;;;;33.77;22.20;;;;;;;13.89;100.00;98741.50;4802207;29;20214;-81
2022/10/21 04:47:22;;;;;;;32.20;22.07;;;;;;;13.93;100.00;98733.16;4745340;30;20264;-82
2022/10/21 04:50:03;;;;;;;29.80;19.97;;;;;;;13.98;100.00;98735.41;4774863;29;20259;-82
2022/10/21 04:52:38;;;;;;;35.90;21.90;;;;;;;13.90;100.00;98729.91;4755797;30;20202;-82
2022/10/21 04:55:19;;;;;;;32.83;20.60;;;;;;;13.93;100.00;98717.16;4780587;29;20666;-82
2022/10/21 04:57:58;;;;;;;29.87;20.00;;;;;;;13.96;100.00;98719.56;4822853;29;20380;-82
2022/10/21 05:00:56;;;;;;;32.37;18.97;;;;;;;13.98;100.00;98722.09;4821296;29;20290;-82
2022/10/21 05:03:42;;;;;;;29.63;19.20;;;;;;;13.97;100.00;98733.72;4840702;29;20699;-81
2022/10/21 05:06:29;;;;;;;24.80;18.03;;;;;;;14.07;100.00;98741.75;4849137;29;20295;-81
2022/10/21 05:09:04;;;;;;;27.87;18.23;;;;;;;14.07;100.00;98741.75;4857966;29;20203;-82
2022/10/21 05:11:54;;;;;;;30.00;18.97;;;;;;;13.91;100.00;98755.56;4851026;29;20203;-82
2022/10/21 05:14:29;;;;;;;29.83;19.23;;;;;;;13.95;100.00;98748.97;4854055;29;20219;-82
2022/10/21 05:17:01;;;;;;;27.37;17.73;;;;;;;13.95;100.00;73918.63;4853820;29;20202;-82
2022/10/21 05:19:31;;;;;;;27.67;17.93;;;;;;;13.82;100.00;98732.38;4941627;29;20264;-82
2022/10/21 05:22:12;;;;;;;27.27;18.27;;;;;;;13.77;100.00;98726.56;4876544;29;20222;-81
2022/10/21 05:24:46;;;;;;;26.77;17.90;;;;;;;13.75;100.00;98721.38;4886574;29;20206;-83
2022/10/21 05:27:22;;;;;;;29.57;17.73;;;;;;;13.75;100.00;98721.38;4896421;29;20198;-82
2022/10/21 05:30:09;;;;;;;26.37;17.60;;;;;;;13.71;100.00;98715.47;4882161;29;20209;-82
2022/10/21 05:33:10;;;;;;;23.80;16.47;;;;;;;13.82;100.00;98714.56;4820686;29;20502;-83
2022/10/21 05:35:46;;;;;;;26.00;17.20;;;;;;;13.67;100.00;98702.53;4806670;29;20704;-82
2022/10/21 05:38:18;;;;;;;26.77;16.87;;;;;;;13.66;100.00;98701.69;4808562;29;20225;-82
2022/10/21 05:40:54;;;;;;;23.73;16.83;;;;;;;13.71;100.00;98704.84;4769552;30;20272;-81
2022/10/21 05:43:27;;;;;;;24.13;17.17;;;;;;;13.70;100.00;98708.47;4769883;30;20207;-82
2022/10/21 05:46:00;;;;;;;23.57;17.20;;;;;;;13.68;100.00;98701.56;4815625;29;20206;-81
2022/10/21 05:48:33;;;;;;;26.57;16.80;;;;;;;13.68;100.00;98698.91;4861636;29;20203;-82
2022/10/21 05:51:03;;;;;;;23.53;16.17;;;;;;;13.69;100.00;98693.44;4906128;29;20219;-82
2022/10/21 05:53:35;;;;;;;22.60;16.63;;;;;;;13.72;100.00;98700.34;4935429;28;20265;-81
2022/10/21 05:56:09;;;;;;;28.03;15.77;;;;;;;13.68;100.00;98693.59;4973154;28;20191;-82
2022/10/21 05:58:40;;;;;;;23.90;16.33;;;;;;;13.67;100.00;98689.22;4964783;28;20228;-82
2022/10/21 06:01:23;;;;;;;24.03;15.90;;;;;;;13.73;100.00;98692.22;4989533;28;20202;-81
2022/10/21 06:03:56;;;;;;;27.00;15.97;;;;;;;13.73;100.00;98692.22;5057541;28;20275;-82
2022/10/21 06:06:45;;;;;;;23.97;15.63;;;;;;;13.58;100.00;98690.00;5012914;28;20190;-82
2022/10/21 06:09:34;;;;;;;27.13;16.20;;;;;;;13.56;100.00;98684.81;5012459;28;20232;-82
2022/10/21 06:12:10;;;;;;;19.47;15.00;;;;;;;-97.76;100.00;98684.81;4956728;28;20208;-82
2022/10/21 06:14:47;;;;;;;20.77;15.57;;;;;;;13.68;100.00;98689.09;4943611;28;20734;-82
2022/10/21 06:17:31;;;;;;;21.77;15.00;;;;;;;13.62;100.00;98694.13;4884143;29;20199;-82
2022/10/21 06:20:09;;;;;;;21.23;15.50;;;;;;;13.59;100.00;98684.56;4775855;29;20278;-82
2022/10/21 06:22:46;;;;;;;23.40;16.37;;;;;;;13.59;100.00;98684.56;4772021;29;20688;-81
2022/10/21 06:25:15;;;;;;;24.13;16.20;;;;;;;13.57;100.00;98680.34;4768500;30;20285;-81
2022/10/21 06:27:45;;;;;;;21.20;15.37;;;;;;;13.58;100.00;98684.69;4763381;30;20211;-82
2022/10/21 06:30:16;;;;;;;21.20;15.47;;;;;;;13.52;100.00;98694.03;4744911;30;20242;-82
2022/10/21 06:32:48;;;;;;;22.53;16.47;;;;;;;13.59;100.00;98691.69;4805682;29;20198;-82
2022/10/21 06:35:19;;;;;;;22.13;16.63;;;;;;;13.59;100.00;98691.69;4773467;29;20711;-82
2022/10/21 06:37:57;;;;;;;25.80;15.93;;;;;;;13.58;100.00;98688.19;4824042;29;20207;-82
2022/10/21 06:40:29;;;;;;;20.50;15.73;;;;;;;-144.59;100.00;81359.41;4860329;29;20209;-82
2022/10/21 06:42:59;;;;;;;22.43;15.73;;;;;;;13.64;100.00;98697.50;4906748;29;20200;-81
2022/10/21 06:45:28;;;;;;;22.67;17.37;;;;;;;13.59;100.00;98702.34;4876511;29;20247;-82
2022/10/21 06:48:06;;;;;;;23.47;16.70;;;;;;;13.66;100.00;98698.19;4890866;29;20229;-82
2022/10/21 06:50:37;;;;;;;25.80;18.57;;;;;;;13.61;100.00;98701.25;4934148;29;20252;-82
2022/10/21 06:53:19;;;;;;;21.23;16.17;;;;;;;13.57;100.00;98701.63;4921431;29;20201;-82
2022/10/21 06:55:50;;;;;;;22.97;16.93;;;;;;;13.64;100.00;98700.16;4883933;29;20233;-82
2022/10/21 06:58:25;;;;;;;26.30;17.63;;;;;;;13.60;100.00;98704.88;4914105;29;20252;-82
2022/10/21 07:01:02;;;;;;;30.80;17.03;;;;;;;13.54;100.00;98700.06;4912781;29;20665;-82
2022/10/21 07:04:02;;;;;;;26.43;18.10;;;;;;;13.54;100.00;74895.53;4934681;28;20294;-82
2022/10/21 07:06:39;;;;;;;25.13;17.53;;;;;;;13.64;100.00;98689.50;4955345;28;20711;-82
2022/10/21 07:09:11;;;;;;;21.70;17.10;;;;;;;13.64;100.00;98689.50;4895592;29;20210;-82
2022/10/21 07:11:41;;;;;;;20.67;16.70;;;;;;;13.70;100.00;98692.50;4893578;29;20235;-82
2022/10/21 07:14:12;;;;;;;24.43;17.07;;;;;;;13.60;100.00;98683.56;4889920;29;20234;-82
2022/10/21 07:16:42;;;;;;;24.93;16.03;;;;;;;-144.59;100.00;98683.56;4905627;29;20197;-82
2022/10/21 07:19:21;;;;;;;21.10;16.27;;;;;;;13.60;100.00;98683.56;4952184;29;20271;-82
2022/10/21 07:21:56;;;;;;;21.80;15.33;;;;;;;13.85;100.00;98698.34;4942578;29;20208;-82
2022/10/21 07:24:34;;;;;;;21.03;15.13;;;;;;;13.81;100.00;98691.59;4950700;29;20200;-82
2022/10/21 07:27:05;;;;;;;24.60;16.23;;;;;;;13.81;100.00;98694.25;4959494;28;20227;-82
2022/10/21 07:29:35;;;;;;;23.17;16.70;;;;;;;13.81;100.00;98694.25;4989259;28;20195;-82
2022/10/21 07:32:07;;;;;;;25.50;16.40;;;;;;;13.79;100.00;98690.84;5040560;28;20224;-82
2022/10/21 07:34:38;;;;;;;22.70;15.90;;;;;;;13.82;100.00;98692.44;5070230;28;20196;-81
2022/10/21 07:37:14;;;;;;;27.13;17.30;;;;;;;13.82;100.00;98703.94;5071737;28;20220;-82
2022/10/21 07:39:48;;;;;;;26.03;16.80;;;;;;;13.77;100.00;98713.25;5064118;28;20216;-82
2022/10/21 07:42:23;;;;;;;22.83;16.63;;;;;;;-144.59;100.00;98713.25;5065945;28;20245;-81
2022/10/21 07:45:04;;;;;;;23.57;15.77;;;;;;;188.97;100.00;98692.16;5060220;28;20196;-82
2022/10/21 07:47:40;;;;;;;24.33;16.43;;;;;;;13.89;100.00;98701.56;5005972;28;20194;-82
2022/10/21 07:50:14;;;;;;;22.73;15.63;;;;;;;-88.65;100.00;89266.59;4950625;28;20243;-82
2022/10/21 07:52:45;;;;;;;21.30;16.10;;;;;;;13.74;100.00;98715.22;4948901;28;20196;-82
2022/10/21 07:55:31;;;;;;;25.03;16.30;;;;;;;13.81;100.00;98706.72;4912331;29;20202;-81
2022/10/21 07:58:05;;;;;;;23.70;16.67;;;;;;;13.84;100.00;98699.31;4857717;29;20203;-82
2022/10/21 08:03:32;;;;;;;22.73;15.67;;;;;;;13.81;100.00;98701.41;4857452;29;20256;-82
2022/10/21 08:06:04;;;;;;;23.60;14.67;;;;;;;13.72;100.00;98695.03;4854523;29;20204;-82
2022/10/21 08:08:33;;;;;;;23.60;15.17;;;;;;;13.72;100.00;98695.03;4853743;29;20200;-82
2022/10/21 08:11:04;;;;;;;24.87;15.90;;;;;;;13.66;100.00;98693.72;4837598;29;20257;-82
2022/10/21 08:13:34;;;;;;;20.90;15.83;;;;;;;13.71;100.00;98693.34;4863235;29;20226;-82
2022/10/21 08:16:06;;;;;;;27.10;16.03;;;;;;;13.73;100.00;98697.56;4910100;29;20197;-82
2022/10/21 08:18:36;;;;;;;23.67;15.37;;;;;;;13.76;100.00;98693.78;4929003;29;20204;-81
2022/10/21 08:21:09;;;;;;;27.30;15.87;;;;;;;13.64;100.00;98697.50;4929005;29;20220;-82
2022/10/21 08:23:38;;;;;;;22.87;16.43;;;;;;;13.64;100.00;98708.13;4934548;29;20193;-81
2022/10/21 08:26:14;;;;;;;24.40;16.60;;;;;;;13.69;100.00;98700.59;4962944;28;20203;-82
2022/10/21 08:28:48;;;;;;;21.20;15.40;;;;;;;13.77;100.00;98706.13;5002011;28;20199;-82
2022/10/21 08:31:22;;;;;;;18.77;14.33;;;;;;;13.73;100.00;98715.34;5046532;28;20196;-82
2022/10/21 08:33:52;;;;;;;20.77;15.10;;;;;;;-108.17;100.00;98715.34;4967919;28;20231;-82
2022/10/21 08:36:29;;;;;;;21.60;15.07;;;;;;;13.75;100.00;98732.03;4961854;28;20235;-83
2022/10/21 08:38:59;;;;;;;21.37;13.77;;;;;;;13.74;100.00;98723.19;4969421;28;20222;-83
2022/10/21 08:41:44;;;;;;;17.83;14.70;;;;;;;13.89;100.00;98729.03;4970282;28;20198;-82
2022/10/21 08:44:33;;;;;;;20.20;14.10;;;;;;;13.89;100.00;98729.03;4971838;28;20305;-81
2022/10/21 08:47:12;;;;;;;19.90;14.50;;;;;;;13.87;100.00;98720.34;4933139;29;20653;-80
2022/10/21 08:49:54;;;;;;;22.40;15.10;;;;;;;-144.59;100.00;98720.34;4933398;29;20201;-81
2022/10/21 08:52:32;;;;;;;21.70;14.43;;;;;;;13.86;100.00;98728.47;4980343;28;20654;-80
2022/10/21 08:55:03;;;;;;;22.07;14.00;;;;;;;13.97;100.00;98726.56;4963323;28;20201;-81
2022/10/21 08:57:33;;;;;;;24.23;14.30;;;;;;;13.93;100.00;98716.31;5020586;28;20214;-81
2022/10/21 09:00:02;;;;;;;22.43;15.20;;;;;;;13.96;100.00;98718.72;5044707;28;20217;-81
2022/10/21 09:02:47;;;;;;;22.10;14.47;;;;;;;14.05;100.00;98712.59;5044593;28;20197;-80
2022/10/21 09:05:35;;;;;;;20.40;13.77;;;;;;;14.06;100.00;98706.31;5047402;28;20239;-81
2022/10/21 09:08:20;;;;;;;19.53;13.23;;;;;;;14.04;100.00;98710.94;5043099;28;20223;-81
2022/10/21 09:11:00;;;;;;;18.87;13.73;;;;;;;14.07;100.00;98710.66;5056120;28;20196;-81
2022/10/21 09:13:56;;;;;;;20.97;14.43;;;;;;;14.02;100.00;98705.72;5094770;28;20276;-81
2022/10/21 09:16:36;;;;;;;21.13;14.67;;;;;;;14.12;100.00;98712.94;5026392;28;20252;-80
2022/10/21 09:19:14;;;;;;;21.93;13.97;;;;;;;14.12;100.00;98712.94;5029614;28;20194;-81
2022/10/21 09:21:59;;;;;;;23.43;13.93;;;;;;;13.99;100.00;98716.66;5022255;28;20202;-81
2022/10/21 09:24:58;;;;;;;18.67;13.83;;;;;;;14.06;100.00;98714.28;4953007;28;20276;-81
2022/10/21 09:27:26;;;;;;;18.60;13.37;;;;;;;14.03;100.00;98709.25;4947992;28;20219;-81
2022/10/21 09:30:19;;;;;;;19.60;13.93;;;;;;;14.06;100.00;98716.97;4941606;28;20618;-82
2022/10/21 09:32:50;;;;;;;20.07;13.67;;;;;;;14.07;100.00;98715.13;4965187;28;20722;-81
2022/10/21 09:35:26;;;;;;;21.30;14.10;;;;;;;-144.59;100.00;98715.13;4996473;28;20207;-81
2022/10/21 09:37:58;;;;;;;18.87;13.43;;;;;;;14.13;100.00;98717.28;5004648;28;20206;-81
2022/10/21 09:40:32;;;;;;;19.53;14.10;;;;;;;14.13;100.00;98717.28;5002434;28;20269;-81
2022/10/21 09:43:01;;;;;;;19.40;13.23;;;;;;;13.93;100.00;98719.81;5050314;28;20198;-81
2022/10/21 09:45:34;;;;;;;22.20;13.27;;;;;;;14.17;100.00;98732.84;5086000;28;20199;-81
2022/10/21 09:48:07;;;;;;;18.67;14.30;;;;;;;14.17;100.00;98732.84;5093066;28;20233;-82
2022/10/21 09:50:37;;;;;;;20.13;15.27;;;;;;;14.22;100.00;98728.00;5087361;28;20226;-81
2022/10/21 09:53:12;;;;;;;18.70;13.40;;;;;;;14.21;100.00;98734.31;5041862;28;20192;-82
2022/10/21 09:55:47;;;;;;;21.47;13.93;;;;;;;-144.59;100.00;63158.22;5084799;28;20195;-83
2022/10/21 09:58:27;;;;;;;19.17;13.53;;;;;;;14.23;100.00;98740.34;5081941;28;20711;-81
2022/10/21 10:00:57;;;;;;;22.10;14.57;;;;;;;14.20;100.00;98748.59;5081457;28;20212;-81
2022/10/21 10:03:31;;;;;;;18.27;13.63;;;;;;;14.29;100.00;98731.81;5025852;28;20202;-81
2022/10/21 10:06:02;;;;;;;16.93;13.20;;;;;;;14.33;100.00;98743.91;5026015;28;20202;-82
2022/10/21 10:08:39;;;;;;;16.03;12.57;;;;;;;14.28;100.00;98727.47;5020594;28;20214;-81
2022/10/21 10:11:17;;;;;;;14.23;10.27;;;;;;;14.27;100.00;98732.91;5042571;28;20238;-80
2022/10/21 10:13:49;;;;;;;16.27;10.70;;;;;;;-144.59;100.00;98732.91;5046791;28;20279;-82
2022/10/21 10:16:22;;;;;;;11.77;9.33;;;;;;;14.33;100.00;98730.56;5024788;28;20252;-81
2022/10/21 10:19:09;;;;;;;11.97;9.80;;;;;;;14.24;100.00;98736.69;5023584;28;20197;-81
2022/10/21 10:21:37;;;;;;;13.47;9.90;;;;;;;14.24;100.00;98736.69;5057299;28;20212;-82
2022/10/21 10:24:06;;;;;;;14.00;10.43;;;;;;;14.17;100.00;98743.50;5083571;28;20200;-81
2022/10/21 10:26:41;;;;;;;14.13;10.60;;;;;;;14.30;100.00;98751.31;5084495;28;20188;-81
2022/10/21 10:29:18;;;;;;;11.20;9.70;;;;;;;14.32;100.00;98744.03;5005913;28;20198;-82
2022/10/21 10:31:51;;;;;;;15.33;9.90;;;;;;;14.32;100.00;155264.41;5005724;28;20326;-81
2022/10/21 10:34:23;;;;;;;14.40;9.43;;;;;;;14.32;100.00;98744.03;5011980;28;20195;-82
2022/10/21 10:37:01;;;;;;;10.17;8.03;;;;;;;14.29;100.00;98750.47;5008563;28;20282;-82
2022/10/21 10:39:34;;;;;;;10.93;7.40;;;;;;;14.35;100.00;98751.75;5011467;28;20252;-81
2022/10/21 10:42:07;;;;;;;9.40;6.97;;;;;;;14.36;100.00;98749.94;5009737;28;20218;-82
2022/10/21 10:44:39;;;;;;;12.33;7.40;;;;;;;14.53;100.00;98752.03;4975265;28;20191;-82
2022/10/21 10:47:19;;;;;;;8.03;7.23;;;;;;;14.53;100.00;98752.03;5008472;28;20194;-81
2022/10/21 10:49:50;;;;;;;8.57;7.63;;;;;;;14.43;100.00;98754.59;5029175;28;20204;-83
2022/10/21 10:52:23;;;;;;;8.63;7.10;;;;;;;14.46;100.00;98757.03;5027415;28;20198;-81
2022/10/21 10:55:16;;;;;;;9.33;7.80;;;;;;;14.49;100.00;98747.94;5028576;28;20186;-82
2022/10/21 10:57:52;;;;;;;8.93;8.03;;;;;;;14.52;100.00;98751.19;5030336;28;20671;-82
2022/10/21 11:00:40;;;;;;;8.27;7.43;;;;;;;14.41;100.00;98747.72;5029281;28;20751;-82
2022/10/21 11:03:15;;;;;;;9.43;8.40;;;;;;;14.49;100.00;98742.63;5029009;28;20201;-82
2022/10/21 11:05:46;;;;;;;12.57;8.87;;;;;;;-144.59;100.00;98743.25;5029149;28;20209;-82
2022/10/21 11:08:20;;;;;;;9.30;7.50;;;;;;;14.50;100.00;98734.47;5027604;28;20189;-82
2022/10/21 11:10:52;;;;;;;9.10;7.80;;;;;;;14.48;100.00;98728.44;4971868;28;20247;-81
2022/10/21 11:13:24;;;;;;;8.70;7.77;;;;;;;14.48;100.00;127926.50;5022492;28;20197;-82
2022/10/21 11:16:10;;;;;;;11.70;7.77;;;;;;;14.63;100.00;98747.56;5053140;28;20227;-81
2022/10/21 11:18:47;;;;;;;8.30;7.30;;;;;;;14.56;100.00;98733.94;5059816;28;20706;-82
2022/10/21 11:21:42;;;;;;;8.20;7.23;;;;;;;14.73;100.00;98737.78;5053598;28;20219;-82
2022/10/21 11:24:53;;;;;;;8.63;7.40;;;;;;;14.71;100.00;98730.91;5054791;28;20189;-81
2022/10/21 11:27:42;;;;;;;8.77;7.87;;;;;;;14.68;100.00;98731.19;5053257;28;20227;-82
2022/10/21 11:30:18;;;;;;;9.30;8.40;;;;;;;14.77;100.00;98733.91;5090369;28;20654;-82
2022/10/21 11:32:58;;;;;;;9.57;8.57;;;;;;;14.75;100.00;98719.84;5090196;28;20195;-81
2022/10/21 11:35:42;;;;;;;8.87;8.03;;;;;;;14.86;100.00;98725.09;5093271;28;20191;-82
2022/10/21 11:38:49;;;;;;;9.13;8.13;;;;;;;14.91;100.00;98718.50;5087811;28;20273;-82
2022/10/21 11:41:30;;;;;;;9.23;7.90;;;;;;;14.99;100.00;98732.00;5090465;28;20219;-81
2022/10/21 11:44:11;;;;;;;10.90;8.67;;;;;;;14.86;100.00;98737.53;5086855;28;20261;-82
2022/10/21 11:46:56;;;;;;;9.67;8.77;;;;;;;14.92;100.00;98742.34;5086345;28;20284;-82
2022/10/21 11:49:42;;;;;;;11.40;10.13;;;;;;;14.74;100.00;98755.47;5087233;28;20661;-82
2022/10/21 11:52:27;;;;;;;9.90;8.20;;;;;;;14.81;100.00;98764.63;5082563;28;20204;-82
2022/10/21 11:55:31;;;;;;;11.73;10.63;;;;;;;14.77;100.00;98763.22;5085179;28;20227;-82